Ye Chi — VRFV6 — position and weather

sailwx.info

Track history (hours):
 
Tides and Currents Weather Stations Pressure Air Temp Water Temp Dewpoint Dewpoint Depression Visibility Wind Speed Wind Dir Waves Ship Positions

Ye Chi

Last reported at 2015-Jan-27 20:33 UTC. Time now 2015-Jan-27 21:07 UTC.
Position N 01°13' E 103°49'.

Length 187 m; draft 10.7 m.

Type: Ship (hazmat cat D). MMSI: 477621300.

Date/timePositionNaut miles runAvg speedWind from/ knotsBaromVisibWave heightAir tempDewpointWater temp
2015-Jan-27 20:33N 01°13' E 103°49'0 0.1
2015-Jan-27 19:27N 01°13' E 103°49'0 0.1
2015-Jan-27 18:27N 01°13' E 103°49'0 0.0
2015-Jan-27 17:33N 01°13' E 103°49'0 0.0
2015-Jan-27 16:30N 01°13' E 103°49'0 0.0
2015-Jan-27 15:27N 01°13' E 103°49'0 0.0
2015-Jan-27 14:33N 01°13' E 103°49'0 0.0
2015-Jan-27 13:27N 01°13' E 103°49'0 0.0
2015-Jan-27 12:30N 01°13' E 103°49'0 0.0
2015-Jan-27 11:33N 01°13' E 103°49'0 0.1
2015-Jan-27 10:33N 01°13' E 103°49'0 0.0
2015-Jan-27 09:33N 01°13' E 103°49'4 3.7
2015-Jan-27 08:32N 01°13' E 103°52'8 8.5
2015-Jan-27 07:33N 01°16' E 104°00'9 9.2
2015-Jan-27 06:33N 01°17' E 104°09'  
2015-Jan-22 19:06N 22°11' E 116°54'2413.6
2015-Jan-22 17:20N 22°33' E 117°06'1012.8
2015-Jan-22 16:33N 22°41' E 117°12'1612.9
2015-Jan-22 15:18N 22°55' E 117°19'4812.3
2015-Jan-22 11:23N 23°30' E 117°56'1513.6
2015-Jan-22 10:17N 23°40' E 118°09'1113.9
2015-Jan-22 09:31N 23°47' E 118°17'1414.4
2015-Jan-22 08:33N 23°57' E 118°28'2114.9
2015-Jan-22 07:09N 24°11' E 118°45'915.0
2015-Jan-22 06:31N 24°17' E 118°52'1514.9
2015-Jan-22 05:31N 24°27' E 119°04'1414.8
2015-Jan-22 04:33N 24°37' E 119°16'1515.0
2015-Jan-22 03:34N 24°47' E 119°28'1614.8
2015-Jan-22 02:29N 24°59' E 119°40'2913.1
2015-Jan-22 00:16N 25°21' E 120°01'35512.2
2015-Jan-20 19:10N 30°37' E 123°04'1113.9
2015-Jan-20 18:20N 30°48' E 123°00'46712.6
2015-Jan-19 05:16N 38°33' E 122°04'710.2
2015-Jan-19 04:34N 38°39' E 121°59'8 8.4
2015-Jan-19 03:33N 38°47' E 121°57'1110.9
2015-Jan-19 02:33N 38°58' E 121°56'3 0.2
2015-Jan-18 12:14N 38°55' E 121°57'5 0.6
2015-Jan-18 04:28N 38°54' E 122°03'2 1.2
2015-Jan-18 03:07N 38°53' E 122°02'610.6
2015-Jan-18 02:33N 38°48' E 121°57'1313.4
2015-Jan-18 01:34N 38°37' E 121°48'1513.6
2015-Jan-18 00:27N 38°23' E 121°40'  
Track history (hours):
 
Tides and Currents Weather Stations Pressure Air Temp Water Temp Dewpoint Dewpoint Depression Visibility Wind Speed Wind Dir Waves Ship Positions

Ye Chi

Last reported at 2015-Jan-27 20:33 UTC. Time now 2015-Jan-27 21:07 UTC.
Position N 01°13' E 103°49'.

Length 187 m; draft 10.7 m.

Type: Ship (hazmat cat D). MMSI: 477621300.

Date/timePositionNaut miles runAvg speedWind from/ knotsBaromVisibWave heightAir tempDewpointWater temp
2015-Jan-27 20:33N 01°13' E 103°49'0 0.1
2015-Jan-27 19:27N 01°13' E 103°49'0 0.1
2015-Jan-27 18:27N 01°13' E 103°49'0 0.0
2015-Jan-27 17:33N 01°13' E 103°49'0 0.0
2015-Jan-27 16:30N 01°13' E 103°49'0 0.0
2015-Jan-27 15:27N 01°13' E 103°49'0 0.0
2015-Jan-27 14:33N 01°13' E 103°49'0 0.0
2015-Jan-27 13:27N 01°13' E 103°49'0 0.0
2015-Jan-27 12:30N 01°13' E 103°49'0 0.0
2015-Jan-27 11:33N 01°13' E 103°49'0 0.1
2015-Jan-27 10:33N 01°13' E 103°49'0 0.0
2015-Jan-27 09:33N 01°13' E 103°49'4 3.7
2015-Jan-27 08:32N 01°13' E 103°52'8 8.5
2015-Jan-27 07:33N 01°16' E 104°00'9 9.2
2015-Jan-27 06:33N 01°17' E 104°09'  
2015-Jan-22 19:06N 22°11' E 116°54'2413.6
2015-Jan-22 17:20N 22°33' E 117°06'1012.8
2015-Jan-22 16:33N 22°41' E 117°12'1612.9
2015-Jan-22 15:18N 22°55' E 117°19'4812.3
2015-Jan-22 11:23N 23°30' E 117°56'1513.6
2015-Jan-22 10:17N 23°40' E 118°09'1113.9
2015-Jan-22 09:31N 23°47' E 118°17'1414.4
2015-Jan-22 08:33N 23°57' E 118°28'2114.9
2015-Jan-22 07:09N 24°11' E 118°45'915.0
2015-Jan-22 06:31N 24°17' E 118°52'1514.9
2015-Jan-22 05:31N 24°27' E 119°04'1414.8
2015-Jan-22 04:33N 24°37' E 119°16'1515.0
2015-Jan-22 03:34N 24°47' E 119°28'1614.8
2015-Jan-22 02:29N 24°59' E 119°40'2913.1
2015-Jan-22 00:16N 25°21' E 120°01'35512.2
2015-Jan-20 19:10N 30°37' E 123°04'1113.9
2015-Jan-20 18:20N 30°48' E 123°00'46712.6
2015-Jan-19 05:16N 38°33' E 122°04'710.2
2015-Jan-19 04:34N 38°39' E 121°59'8 8.4
2015-Jan-19 03:33N 38°47' E 121°57'1110.9
2015-Jan-19 02:33N 38°58' E 121°56'3 0.2
2015-Jan-18 12:14N 38°55' E 121°57'5 0.6
2015-Jan-18 04:28N 38°54' E 122°03'2 1.2
2015-Jan-18 03:07N 38°53' E 122°02'610.6
2015-Jan-18 02:33N 38°48' E 121°57'1313.4
2015-Jan-18 01:34N 38°37' E 121°48'1513.6
2015-Jan-18 00:27N 38°23' E 121°40'  

Dump ship's entire track history